Comanche, Texas
Current Conditions -  °F | °C
As of 5:55 PM on Monday 22 Dec 2014 (Local Time) from KMKN Reporting Station
Clear Clear  
Wind Chill: 14°   Ceiling: Unl
Heat Index: 14°   Visibility: 10mi
Dew Point:   Wind: 9mph
Humidity: 54%   Direction: 360°N
Pressure: 29.67"   Gusts: NA
Location:  31.9°N, 98.6°W
Report Text: KMKN 222355Z AUTO 36008KT 10SM CLR 14/05 A2967 RMK AO2 T01440051 10190 20143
Loading
Personal Weather Stations






























Interactive Weather Map New forecast layout! Learn more

10-Day Weather Forecast

Advertisements
Track Severe Weather on mobile